createdAt,value
2017-08-30T00:00:58.567Z,18.30
2017-08-30T00:03:26.043Z,18.30
2017-08-30T00:05:53.516Z,18.40
2017-08-30T00:08:20.978Z,18.40
2017-08-30T00:10:48.455Z,18.40
2017-08-30T00:13:16.238Z,18.40
2017-08-30T00:15:43.703Z,18.40
2017-08-30T00:18:11.176Z,18.40
2017-08-30T00:20:38.656Z,18.40
2017-08-30T00:23:06.127Z,18.40
2017-08-30T00:25:45.461Z,18.40
2017-08-30T00:28:12.927Z,18.30
2017-08-30T00:30:40.424Z,18.20
2017-08-30T00:33:07.888Z,18.20
2017-08-30T00:35:35.355Z,18.20
2017-08-30T00:38:02.832Z,18.10
2017-08-30T00:40:30.303Z,18.10
2017-08-30T00:42:57.791Z,18.20
2017-08-30T00:45:25.264Z,18.10
2017-08-30T00:47:52.742Z,18.10
2017-08-30T00:50:20.208Z,18.10
2017-08-30T00:52:47.683Z,18.00
2017-08-30T00:55:15.152Z,17.90
2017-08-30T00:57:42.628Z,17.90
2017-08-30T01:00:10.090Z,17.90
2017-08-30T01:02:38.332Z,17.90
2017-08-30T01:05:05.800Z,17.90
2017-08-30T01:07:33.285Z,18.00
2017-08-30T01:10:00.764Z,17.90
2017-08-30T01:12:28.275Z,17.90
2017-08-30T01:14:55.734Z,17.90
2017-08-30T01:17:23.208Z,17.80
2017-08-30T01:19:50.678Z,17.70
2017-08-30T01:22:18.161Z,17.80
2017-08-30T01:24:45.632Z,17.80
2017-08-30T01:27:13.115Z,17.70
2017-08-30T01:29:40.580Z,17.70
2017-08-30T01:32:08.063Z,17.60
2017-08-30T01:34:35.527Z,17.60
2017-08-30T01:37:03.013Z,17.60
2017-08-30T01:39:30.481Z,17.50
2017-08-30T01:41:58.212Z,17.50
2017-08-30T01:44:25.674Z,17.40
2017-08-30T01:46:53.160Z,17.30
2017-08-30T01:49:20.629Z,17.40
2017-08-30T01:51:48.103Z,17.30
2017-08-30T01:54:15.571Z,17.20
2017-08-30T01:56:43.199Z,17.20
2017-08-30T01:59:10.673Z,17.20
2017-08-30T02:01:38.136Z,17.10
2017-08-30T02:04:05.616Z,17.20
2017-08-30T02:06:33.083Z,17.20
2017-08-30T02:09:00.564Z,17.20
2017-08-30T02:11:28.029Z,17.20
2017-08-30T02:13:55.511Z,17.30
2017-08-30T02:16:22.975Z,17.30
2017-08-30T02:18:50.476Z,17.30
2017-08-30T02:21:18.719Z,17.30
2017-08-30T02:23:46.415Z,17.30
2017-08-30T02:26:14.293Z,17.30
2017-08-30T02:28:41.790Z,17.30
2017-08-30T02:31:09.264Z,17.30
2017-08-30T02:33:36.731Z,17.20
2017-08-30T02:36:04.212Z,17.20
2017-08-30T02:38:31.676Z,17.20
2017-08-30T02:40:59.151Z,17.20
2017-08-30T02:43:26.624Z,17.20
2017-08-30T02:45:54.116Z,17.10
2017-08-30T02:48:21.584Z,17.10
2017-08-30T02:50:49.068Z,17.00
2017-08-30T02:53:16.544Z,17.00
2017-08-30T02:55:44.020Z,16.90
2017-08-30T02:58:11.495Z,16.90
2017-08-30T03:00:38.984Z,16.80
2017-08-30T03:03:06.455Z,16.90
2017-08-30T03:05:33.940Z,17.00
2017-08-30T03:08:01.409Z,17.00
2017-08-30T03:10:28.884Z,16.90
2017-08-30T03:12:56.364Z,16.90
2017-08-30T03:15:23.844Z,16.90
2017-08-30T03:17:51.654Z,16.80
2017-08-30T03:20:19.124Z,16.90
2017-08-30T03:22:46.588Z,16.80
2017-08-30T03:25:14.073Z,16.70
2017-08-30T03:27:41.680Z,16.70
2017-08-30T03:30:09.217Z,16.60
2017-08-30T03:32:36.689Z,16.60
2017-08-30T03:35:04.176Z,16.50
2017-08-30T03:37:31.650Z,16.50
2017-08-30T03:39:59.116Z,16.60
2017-08-30T03:42:26.611Z,16.50
2017-08-30T03:44:54.077Z,16.50
2017-08-30T03:47:21.547Z,16.40
2017-08-30T03:49:49.026Z,16.40
2017-08-30T03:52:16.512Z,16.50
2017-08-30T03:54:43.982Z,16.60
2017-08-30T03:57:11.463Z,16.50
2017-08-30T03:59:38.936Z,16.60
2017-08-30T04:02:06.818Z,16.60
2017-08-30T04:04:34.281Z,16.60
2017-08-30T04:07:01.772Z,16.60
2017-08-30T04:09:29.240Z,16.40
2017-08-30T04:11:56.724Z,16.40
2017-08-30T04:14:24.196Z,16.40
2017-08-30T04:16:51.680Z,16.30
2017-08-30T04:19:19.154Z,16.40
2017-08-30T04:21:46.631Z,16.40
2017-08-30T04:24:14.100Z,16.50
2017-08-30T04:26:41.602Z,16.50
2017-08-30T04:29:09.079Z,16.50
2017-08-30T04:31:36.568Z,16.60
2017-08-30T04:34:04.035Z,16.60
2017-08-30T04:36:31.512Z,16.50
2017-08-30T04:38:59.001Z,16.50
2017-08-30T04:41:26.477Z,16.50
2017-08-30T04:43:53.956Z,16.40
2017-08-30T04:46:21.432Z,16.50
2017-08-30T04:48:48.908Z,16.50
2017-08-30T04:51:16.392Z,16.50
2017-08-30T04:53:43.871Z,16.60
2017-08-30T04:56:11.345Z,16.60
2017-08-30T04:58:38.825Z,16.70
2017-08-30T05:01:06.312Z,16.60
2017-08-30T05:03:33.803Z,16.70
2017-08-30T05:06:01.288Z,16.70
2017-08-30T05:08:28.790Z,16.80
2017-08-30T05:10:56.264Z,16.80
2017-08-30T05:13:23.735Z,16.80
2017-08-30T05:15:51.212Z,16.80
2017-08-30T05:18:19.886Z,16.80
2017-08-30T05:20:47.372Z,16.80
2017-08-30T05:23:14.845Z,16.80
2017-08-30T05:25:42.338Z,16.80
2017-08-30T05:28:09.800Z,16.90
2017-08-30T05:30:37.284Z,17.00
2017-08-30T05:33:04.810Z,17.10
2017-08-30T05:35:32.288Z,17.10
2017-08-30T05:37:59.761Z,17.10
2017-08-30T05:40:27.238Z,17.20
2017-08-30T05:42:54.713Z,17.30
2017-08-30T05:45:22.210Z,17.30
2017-08-30T05:47:49.688Z,17.40
2017-08-30T05:50:17.479Z,17.40
2017-08-30T05:52:44.948Z,17.40
2017-08-30T05:55:12.446Z,17.50
2017-08-30T05:57:39.916Z,17.60
2017-08-30T06:00:07.392Z,17.70
2017-08-30T06:02:34.870Z,17.80
2017-08-30T06:05:02.352Z,17.90
2017-08-30T06:07:29.824Z,18.00
2017-08-30T06:09:57.311Z,18.10
2017-08-30T06:12:24.780Z,18.30
2017-08-30T06:14:52.268Z,18.40
2017-08-30T06:17:20.200Z,18.50
2017-08-30T06:19:47.704Z,18.60
2017-08-30T06:22:15.175Z,18.80
2017-08-30T06:24:42.664Z,18.90
2017-08-30T06:27:10.144Z,19.00
2017-08-30T06:29:37.624Z,19.10
2017-08-30T06:32:05.101Z,19.30
2017-08-30T06:34:32.584Z,19.50
2017-08-30T06:37:00.057Z,19.60
2017-08-30T06:39:27.540Z,19.70
2017-08-30T06:41:55.013Z,19.80
2017-08-30T06:44:22.494Z,20.00
2017-08-30T06:46:49.968Z,20.10
2017-08-30T06:49:17.459Z,20.20
2017-08-30T06:51:44.924Z,20.50
2017-08-30T06:54:12.428Z,20.60
2017-08-30T06:56:40.663Z,20.90
2017-08-30T06:59:08.139Z,20.90
2017-08-30T07:01:35.628Z,21.00
2017-08-30T07:04:03.109Z,21.20
2017-08-30T07:06:30.594Z,21.40
2017-08-30T07:08:58.065Z,21.60
2017-08-30T07:11:25.540Z,21.70
2017-08-30T07:13:53.012Z,21.90
2017-08-30T07:16:20.492Z,22.00
2017-08-30T07:18:48.729Z,22.30
2017-08-30T07:21:16.209Z,22.20
2017-08-30T07:23:43.687Z,22.40
2017-08-30T07:26:11.176Z,22.50
2017-08-30T07:28:38.654Z,22.80
2017-08-30T07:31:06.119Z,23.00
2017-08-30T07:33:33.604Z,23.30
2017-08-30T07:36:01.104Z,23.40
2017-08-30T07:38:28.594Z,23.60
2017-08-30T07:40:56.064Z,23.90
2017-08-30T07:43:23.550Z,24.10
2017-08-30T07:45:51.025Z,24.20
2017-08-30T07:48:18.507Z,24.50
2017-08-30T07:50:45.987Z,24.60
2017-08-30T07:53:13.467Z,24.70
2017-08-30T07:55:40.941Z,24.80
2017-08-30T07:58:08.421Z,24.90
2017-08-30T08:00:35.896Z,25.20
2017-08-30T08:03:03.380Z,25.50
2017-08-30T08:05:30.845Z,25.70
2017-08-30T08:07:58.325Z,25.90
2017-08-30T08:10:25.786Z,26.10
2017-08-30T08:12:53.265Z,26.30
2017-08-30T08:15:20.736Z,26.40
2017-08-30T08:17:48.209Z,26.60
2017-08-30T08:20:15.688Z,26.80
2017-08-30T08:22:43.151Z,27.00
2017-08-30T08:25:10.628Z,27.20
2017-08-30T08:27:38.101Z,27.40
2017-08-30T08:30:05.571Z,27.50
2017-08-30T08:32:33.043Z,27.60
2017-08-30T08:35:00.548Z,27.80
2017-08-30T08:37:28.476Z,27.80
2017-08-30T08:39:55.984Z,27.80
2017-08-30T08:42:23.457Z,27.90
2017-08-30T08:44:51.700Z,28.20
2017-08-30T08:47:19.180Z,28.20
2017-08-30T08:49:46.652Z,28.30
2017-08-30T08:52:14.356Z,28.40
2017-08-30T08:54:41.913Z,28.40
2017-08-30T08:57:09.387Z,28.50
2017-08-30T08:59:36.870Z,28.50
2017-08-30T09:02:04.337Z,28.70
2017-08-30T09:04:31.815Z,28.90
2017-08-30T09:06:59.288Z,28.90
2017-08-30T09:09:26.759Z,29.10
2017-08-30T09:11:54.231Z,29.10
2017-08-30T09:14:21.716Z,29.20
2017-08-30T09:16:49.192Z,29.20
2017-08-30T09:19:16.672Z,29.40
2017-08-30T09:21:44.147Z,29.60
2017-08-30T09:24:11.616Z,29.90
2017-08-30T09:26:39.152Z,30.00
2017-08-30T09:29:06.637Z,30.20
2017-08-30T09:31:34.113Z,30.40
2017-08-30T09:34:01.585Z,30.40
2017-08-30T09:36:29.062Z,30.50
2017-08-30T09:38:56.528Z,30.50
2017-08-30T09:41:24.013Z,30.70
2017-08-30T09:43:51.482Z,30.80
2017-08-30T09:46:18.952Z,31.10
2017-08-30T09:48:46.638Z,31.40
2017-08-30T09:51:14.422Z,31.50
2017-08-30T09:53:41.925Z,31.50
2017-08-30T09:56:09.401Z,31.80
2017-08-30T09:58:37.592Z,31.90
2017-08-30T10:01:05.077Z,31.90
2017-08-30T10:03:32.540Z,32.00
2017-08-30T10:06:00.011Z,32.10
2017-08-30T10:08:27.619Z,32.20
2017-08-30T10:10:55.088Z,32.10
2017-08-30T10:13:22.576Z,32.00
2017-08-30T10:15:50.054Z,32.00
2017-08-30T10:18:17.621Z,32.10
2017-08-30T10:20:45.090Z,32.10
2017-08-30T10:23:12.563Z,32.10
2017-08-30T10:25:40.033Z,32.20
2017-08-30T10:28:07.518Z,32.30
2017-08-30T10:30:34.983Z,32.50
2017-08-30T10:33:02.453Z,32.40
2017-08-30T10:35:29.924Z,32.40
2017-08-30T10:37:57.397Z,32.50
2017-08-30T10:40:24.868Z,32.50
2017-08-30T10:42:52.347Z,32.40
2017-08-30T10:45:19.811Z,32.20
2017-08-30T10:47:47.298Z,32.20
2017-08-30T10:50:14.772Z,32.30
2017-08-30T10:52:43.078Z,32.40
2017-08-30T10:55:10.549Z,32.40
2017-08-30T10:57:38.016Z,32.20
2017-08-30T11:00:05.490Z,32.00
2017-08-30T11:02:32.955Z,32.00
2017-08-30T11:05:00.438Z,32.20
2017-08-30T11:07:27.905Z,32.30
2017-08-30T11:09:55.380Z,32.50
2017-08-30T11:12:22.854Z,32.50
2017-08-30T11:14:50.325Z,32.60
2017-08-30T11:17:17.800Z,32.50
2017-08-30T11:19:45.277Z,32.60
2017-08-30T11:22:12.744Z,32.60
2017-08-30T11:24:40.225Z,32.70
2017-08-30T11:27:07.695Z,32.80
2017-08-30T11:29:35.173Z,32.90
2017-08-30T11:32:02.645Z,32.90
2017-08-30T11:34:30.117Z,32.90
2017-08-30T11:36:57.603Z,33.00
2017-08-30T11:39:25.078Z,33.20
2017-08-30T11:41:52.541Z,33.30
2017-08-30T11:44:20.131Z,33.40
2017-08-30T11:46:47.643Z,33.20
2017-08-30T11:49:15.117Z,33.30
2017-08-30T11:51:42.590Z,33.20
2017-08-30T11:54:10.148Z,32.90
2017-08-30T11:56:37.825Z,33.10
2017-08-30T11:59:06.088Z,33.00
2017-08-30T12:01:33.565Z,33.00
2017-08-30T12:04:01.027Z,33.10
2017-08-30T12:06:28.510Z,33.00
2017-08-30T12:08:55.976Z,32.90
2017-08-30T12:11:23.456Z,32.90
2017-08-30T12:13:50.920Z,33.20
2017-08-30T12:16:18.399Z,33.30
2017-08-30T12:18:45.868Z,33.50
2017-08-30T12:21:13.348Z,33.50
2017-08-30T12:23:40.813Z,33.70
2017-08-30T12:26:08.296Z,33.70
2017-08-30T12:28:36.068Z,33.80
2017-08-30T12:31:03.537Z,33.70
2017-08-30T12:33:31.014Z,33.70
2017-08-30T12:35:58.492Z,33.50
2017-08-30T12:41:25.553Z,33.80
2017-08-30T12:43:59.833Z,33.80
2017-08-30T12:46:27.789Z,33.80
2017-08-30T12:48:55.257Z,33.90
2017-08-30T12:51:22.745Z,34.00
2017-08-30T12:53:50.217Z,33.90
2017-08-30T12:56:17.696Z,33.70
2017-08-30T12:58:45.933Z,33.30
2017-08-30T13:01:13.409Z,33.20
2017-08-30T13:03:40.884Z,33.40
2017-08-30T13:06:08.354Z,33.50
2017-08-30T13:08:35.832Z,33.60
2017-08-30T13:11:03.308Z,33.50
2017-08-30T13:13:30.784Z,33.40
2017-08-30T13:15:58.252Z,33.20
2017-08-30T13:18:25.732Z,33.30
2017-08-30T13:20:53.202Z,33.20
2017-08-30T13:23:20.683Z,33.20
2017-08-30T13:25:48.149Z,33.20
2017-08-30T13:28:15.624Z,33.40
2017-08-30T13:30:43.093Z,33.30
2017-08-30T13:33:10.573Z,33.20
2017-08-30T13:35:38.033Z,33.20
2017-08-30T13:38:05.522Z,33.20
2017-08-30T13:40:32.983Z,33.10
2017-08-30T13:43:00.465Z,33.20
2017-08-30T13:45:27.941Z,33.20
2017-08-30T13:47:55.421Z,33.10
2017-08-30T13:50:23.663Z,33.10
2017-08-30T13:52:51.133Z,33.10
2017-08-30T13:55:18.600Z,33.00
2017-08-30T13:57:46.077Z,32.80
2017-08-30T14:00:13.549Z,32.60
2017-08-30T14:02:41.027Z,32.60
2017-08-30T14:05:08.505Z,32.40
2017-08-30T14:07:36.063Z,32.40
2017-08-30T14:10:03.534Z,32.40
2017-08-30T14:12:31.017Z,32.60
2017-08-30T14:14:58.480Z,32.60
2017-08-30T14:17:25.964Z,32.50
2017-08-30T14:19:53.431Z,32.30
2017-08-30T14:22:20.909Z,32.30
2017-08-30T14:24:48.384Z,32.30
2017-08-30T14:27:15.860Z,32.20
2017-08-30T14:29:43.332Z,31.80
2017-08-30T14:32:10.804Z,31.70
2017-08-30T14:34:38.290Z,31.50
2017-08-30T14:37:05.764Z,31.40
2017-08-30T14:39:33.243Z,31.40
2017-08-30T14:42:00.713Z,31.30
2017-08-30T14:44:28.205Z,31.20
2017-08-30T14:46:55.665Z,31.20
2017-08-30T14:49:23.145Z,31.30
2017-08-30T14:51:50.617Z,31.20
2017-08-30T14:54:18.116Z,31.20
2017-08-30T14:56:45.589Z,31.20
2017-08-30T14:59:13.065Z,31.30
2017-08-30T15:01:40.534Z,31.40
2017-08-30T15:04:08.008Z,31.40
2017-08-30T15:06:35.484Z,31.40
2017-08-30T15:09:02.973Z,31.40
2017-08-30T15:11:30.452Z,31.20
2017-08-30T15:13:57.941Z,31.30
2017-08-30T15:16:25.407Z,31.30
2017-08-30T15:18:52.896Z,31.40
2017-08-30T15:21:20.360Z,31.40
2017-08-30T15:23:47.844Z,31.40
2017-08-30T15:26:15.314Z,31.40
2017-08-30T15:28:42.784Z,31.30
2017-08-30T15:31:10.257Z,31.20
2017-08-30T15:33:37.740Z,31.20
2017-08-30T15:36:05.217Z,31.20
2017-08-30T15:38:32.697Z,31.10
2017-08-30T15:41:00.171Z,31.10
2017-08-30T15:43:27.644Z,31.00
2017-08-30T15:45:55.111Z,30.90
2017-08-30T15:48:22.592Z,30.70
2017-08-30T15:50:50.051Z,30.50
2017-08-30T15:53:17.529Z,30.40
2017-08-30T15:55:45.004Z,30.40
2017-08-30T15:58:12.488Z,30.40
2017-08-30T16:00:39.953Z,30.50
2017-08-30T16:03:07.434Z,30.40
2017-08-30T16:05:34.909Z,30.40
2017-08-30T16:08:02.396Z,30.30
2017-08-30T16:10:29.860Z,30.40
2017-08-30T16:12:57.333Z,30.30
2017-08-30T16:15:24.814Z,29.90
2017-08-30T16:17:52.286Z,29.60
2017-08-30T16:20:19.763Z,29.60
2017-08-30T16:22:47.238Z,29.50
2017-08-30T16:25:14.708Z,29.50
2017-08-30T16:27:42.185Z,29.50
2017-08-30T16:30:09.656Z,29.40
2017-08-30T16:32:37.117Z,29.30
2017-08-30T16:35:04.597Z,29.30
2017-08-30T16:37:32.065Z,29.20
2017-08-30T16:39:59.554Z,29.10
2017-08-30T16:42:27.029Z,29.10
2017-08-30T16:44:54.508Z,29.20
2017-08-30T16:47:21.978Z,29.10
2017-08-30T16:49:49.462Z,29.10
2017-08-30T16:52:16.940Z,29.00
2017-08-30T16:54:44.417Z,28.90
2017-08-30T16:57:11.894Z,28.80
2017-08-30T16:59:39.381Z,28.80
2017-08-30T17:02:06.860Z,28.70
2017-08-30T17:04:34.335Z,28.60
2017-08-30T17:07:01.817Z,28.60
2017-08-30T17:09:29.296Z,28.60
2017-08-30T17:11:56.780Z,28.70
2017-08-30T17:14:24.254Z,28.70
2017-08-30T17:16:51.728Z,28.70
2017-08-30T17:19:19.199Z,28.70
2017-08-30T17:21:46.684Z,28.70
2017-08-30T17:24:14.160Z,28.80
2017-08-30T17:26:41.648Z,28.60
2017-08-30T17:29:09.116Z,28.50
2017-08-30T17:31:36.598Z,28.50
2017-08-30T17:34:04.072Z,28.50
2017-08-30T17:36:31.565Z,28.50
2017-08-30T17:38:59.028Z,28.50
2017-08-30T17:41:26.517Z,28.50
2017-08-30T17:44:00.455Z,28.50
2017-08-30T17:46:27.945Z,28.40
2017-08-30T17:48:55.422Z,28.30
2017-08-30T17:51:22.912Z,28.20
2017-08-30T17:53:50.428Z,28.10
2017-08-30T17:56:17.901Z,28.00
2017-08-30T17:58:45.384Z,27.70
2017-08-30T18:01:12.861Z,27.60
2017-08-30T18:03:40.345Z,27.60
2017-08-30T18:06:08.582Z,27.60
2017-08-30T18:08:36.056Z,27.60
2017-08-30T18:11:03.524Z,27.60
2017-08-30T18:13:31.005Z,27.40
2017-08-30T18:15:58.475Z,27.30
2017-08-30T18:18:25.953Z,27.20
2017-08-30T18:20:53.420Z,27.10
2017-08-30T18:23:20.900Z,26.80
2017-08-30T18:25:48.376Z,26.80
2017-08-30T18:28:15.868Z,26.80
2017-08-30T18:30:43.338Z,26.70
2017-08-30T18:33:10.827Z,26.60
2017-08-30T18:35:38.293Z,26.50
2017-08-30T18:38:05.768Z,26.50
2017-08-30T18:40:33.246Z,26.40
2017-08-30T18:43:00.741Z,26.40
2017-08-30T18:45:28.239Z,26.30
2017-08-30T18:47:55.721Z,26.40
2017-08-30T18:50:23.201Z,26.50
2017-08-30T18:52:50.663Z,26.50
2017-08-30T18:55:18.152Z,26.60
2017-08-30T18:57:45.620Z,26.60
2017-08-30T19:00:13.108Z,26.60
2017-08-30T19:02:40.575Z,26.60
2017-08-30T19:05:08.370Z,26.60
2017-08-30T19:07:35.840Z,26.60
2017-08-30T19:10:03.321Z,26.60
2017-08-30T19:12:30.796Z,26.70
2017-08-30T19:14:58.283Z,26.60
2017-08-30T19:17:25.866Z,26.60
2017-08-30T19:19:53.335Z,26.70
2017-08-30T19:22:20.827Z,26.70
2017-08-30T19:24:48.323Z,26.70
2017-08-30T19:27:15.792Z,26.70
2017-08-30T19:29:43.277Z,26.70
2017-08-30T19:32:10.743Z,26.80
2017-08-30T19:34:38.232Z,26.70
2017-08-30T19:37:05.722Z,26.70
2017-08-30T19:39:33.603Z,26.70
2017-08-30T19:42:01.088Z,26.70
2017-08-30T19:44:28.554Z,26.70
2017-08-30T19:46:56.387Z,26.70
2017-08-30T19:49:23.852Z,26.60
2017-08-30T19:51:51.336Z,26.60
2017-08-30T19:54:18.818Z,26.50
2017-08-30T19:56:46.297Z,26.50
2017-08-30T19:59:13.772Z,26.50
2017-08-30T20:01:41.252Z,26.40
2017-08-30T20:04:08.728Z,26.40
2017-08-30T20:06:36.221Z,26.40
2017-08-30T20:09:04.460Z,26.40
2017-08-30T20:11:31.930Z,26.40
2017-08-30T20:13:59.404Z,26.40
2017-08-30T20:16:26.885Z,26.40
2017-08-30T20:18:54.365Z,26.30
2017-08-30T20:21:21.836Z,26.30
2017-08-30T20:23:49.327Z,26.30
2017-08-30T20:26:16.796Z,26.30
2017-08-30T20:28:44.284Z,26.30
2017-08-30T20:31:11.765Z,26.30
2017-08-30T20:33:39.235Z,26.30
2017-08-30T20:36:06.724Z,26.30
2017-08-30T20:38:34.196Z,26.20
2017-08-30T20:41:01.684Z,26.20
2017-08-30T20:43:29.164Z,26.10
2017-08-30T20:45:56.645Z,26.10
2017-08-30T20:48:24.116Z,26.10
2017-08-30T20:50:51.615Z,26.10
2017-08-30T20:53:19.077Z,26.00
2017-08-30T20:55:46.558Z,25.90
2017-08-30T20:58:14.031Z,25.90
2017-08-30T21:00:41.521Z,25.90
2017-08-30T21:03:08.988Z,25.80
2017-08-30T21:05:36.469Z,25.70
2017-08-30T21:08:03.937Z,25.70
2017-08-30T21:10:31.424Z,25.60
2017-08-30T21:12:58.897Z,25.60
2017-08-30T21:15:26.388Z,25.50
2017-08-30T21:17:53.870Z,25.50
2017-08-30T21:20:21.349Z,25.50
2017-08-30T21:22:48.820Z,25.50
2017-08-30T21:25:16.320Z,25.50
2017-08-30T21:27:43.788Z,25.40
2017-08-30T21:30:11.256Z,25.40
2017-08-30T21:32:38.745Z,25.40
2017-08-30T21:35:06.212Z,25.40
2017-08-30T21:37:33.692Z,25.30
2017-08-30T21:40:01.163Z,25.20
2017-08-30T21:42:28.648Z,25.10
2017-08-30T21:44:56.124Z,25.10
2017-08-30T21:47:23.608Z,25.10
2017-08-30T21:49:51.081Z,25.10
2017-08-30T21:52:18.566Z,25.00
2017-08-30T21:54:46.825Z,24.90
2017-08-30T21:57:14.307Z,24.80
2017-08-30T21:59:41.771Z,24.90
2017-08-30T22:02:09.253Z,24.80
2017-08-30T22:04:36.731Z,24.90
2017-08-30T22:07:04.205Z,24.80
2017-08-30T22:09:31.900Z,24.90
2017-08-30T22:11:59.367Z,24.90
2017-08-30T22:14:27.612Z,24.90
2017-08-30T22:16:55.092Z,24.90
2017-08-30T22:19:23.332Z,24.90
2017-08-30T22:21:50.887Z,24.90
2017-08-30T22:24:18.364Z,24.90
2017-08-30T22:26:45.836Z,24.80
2017-08-30T22:29:13.333Z,24.80
2017-08-30T22:31:40.804Z,24.80
2017-08-30T22:34:08.285Z,24.80
2017-08-30T22:36:35.761Z,24.70
2017-08-30T22:39:03.246Z,24.70
2017-08-30T22:41:30.721Z,24.70
2017-08-30T22:44:01.416Z,24.70
2017-08-30T22:46:28.878Z,24.70
2017-08-30T22:48:56.352Z,24.60
2017-08-30T22:51:23.816Z,24.60
2017-08-30T22:53:51.299Z,24.60
2017-08-30T22:56:18.764Z,24.60
2017-08-30T22:58:46.255Z,24.60
2017-08-30T23:01:13.717Z,24.60
2017-08-30T23:03:41.184Z,24.60
2017-08-30T23:06:08.661Z,24.50
2017-08-30T23:08:36.133Z,24.50
2017-08-30T23:11:03.612Z,24.50
2017-08-30T23:13:31.080Z,24.40
2017-08-30T23:15:58.564Z,24.40
2017-08-30T23:18:26.033Z,24.40
2017-08-30T23:20:53.504Z,24.40
2017-08-30T23:23:20.976Z,24.40
2017-08-30T23:25:48.464Z,24.40
2017-08-30T23:28:15.936Z,24.40
2017-08-30T23:30:43.419Z,24.40
2017-08-30T23:33:10.885Z,24.40
2017-08-30T23:35:38.360Z,24.50
2017-08-30T23:38:05.827Z,24.40
2017-08-30T23:40:33.316Z,24.40
2017-08-30T23:43:00.789Z,24.40
2017-08-30T23:45:28.265Z,24.40
2017-08-30T23:47:55.735Z,24.40
2017-08-30T23:50:23.219Z,24.40
2017-08-30T23:52:50.688Z,24.30
2017-08-30T23:55:18.176Z,24.30
2017-08-30T23:57:45.650Z,24.20
